This is the latest recevied weather packets stored in our database for station/object HK6RM-17. If no packets are shown the sender has not sent any weather packets the latest 10 day(s).
| Time | Temp. | Humidity | Pressure | Rain* | Wind** | Luminosity | Snow |
|---|---|---|---|---|---|---|---|
| 1778009198 | 20.56° C | 79% | 1012 hPa | 0 mm | - | - | - |
| 1778008598 | 20.56° C | 77% | 1012 hPa | 0 mm | - | - | - |
| 1778007993 | 21.11° C | 72% | 1012 hPa | 0 mm | - | - | - |
| 1778007393 | 21.11° C | 67% | 1013 hPa | 0 mm | - | - | - |
| 1778006792 | 21.67° C | 67% | 1013 hPa | 0 mm | - | - | - |
| 1778006190 | 21.67° C | 67% | 1013 hPa | 0 mm | - | - | - |
| 1778005588 | 21.67° C | 69% | 1014 hPa | 0 mm | - | - | - |
| 1778004986 | 18.89° C | 77% | 1014 hPa | 0 mm | - | - | - |
| 1778004386 | 18.89° C | 77% | 1014 hPa | 0 mm | - | - | - |
| 1778003786 | 19.44° C | 77% | 1014 hPa | 0 mm | - | - | - |
| 1778003184 | 19.44° C | 77% | 1014 hPa | 0 mm | - | - | - |
| 1778002584 | 19.44° C | 77% | 1014 hPa | 0 mm | - | - | - |
| 1778001983 | 19.44° C | 77% | 1015 hPa | 0 mm | - | - | - |
| 1778001383 | 20° C | 77% | 1015 hPa | 0 mm | - | - | - |
| 1778000782 | 20° C | 77% | 1015 hPa | 0 mm | - | - | - |
| 1778000182 | 20° C | 77% | 1015 hPa | 0 mm | - | - | - |
| 1777999580 | 20° C | 77% | 1015 hPa | 0 mm | - | - | - |
| 1777998980 | 20° C | 77% | 1015 hPa | 0 mm | - | - | - |
| 1777998377 | 20° C | 77% | 1016 hPa | 0 mm | - | - | - |
| 1777997776 | 20.56° C | 77% | 1016 hPa | 0 mm | - | - | - |
| 1777997176 | 17.78° C | 78% | 1016 hPa | 0 mm | - | - | - |
| 1777996575 | 18.33° C | 78% | 1016 hPa | 0 mm | - | - | - |
| 1777995973 | 18.33° C | 78% | 1016 hPa | 0 mm | - | - | - |
| 1777995370 | 18.89° C | 78% | 1016 hPa | 0 mm | - | - | - |
| 1777994769 | 18.33° C | 78% | 1016 hPa | 0 mm | - | - | - |
* Rain latest hour (hover to see other rain measurements)
** Current wind speed in m/s (hover to see current wind gust speed)